Time;durP1;ratioP1;P1;durP2;ratioP2;P2;SDS_P1;SDS_P2;PMS_P1;PMS_P2;Temp;Humidity;BMP_temperature;BMP_pressure;BME280_temperature;BME280_humidity;BME280_pressure;Samples;Min_cycle;Max_cycle;Signal;HPM_P1;HPM_P2
2022/06/04 00:00:22;;;;;;;3.70;1.98;;;19.50;46.70;;;;;;5094876;28;20088;-72
2022/06/04 00:02:49;;;;;;;2.78;1.90;;;19.50;46.70;;;;;;5094857;28;20033;-72
2022/06/04 00:05:23;;;;;;;3.83;1.80;;;19.50;46.70;;;;;;5094799;28;20028;-72
2022/06/04 00:07:52;;;;;;;3.90;2.17;;;19.50;46.90;;;;;;5094825;28;20025;-72
2022/06/04 00:15:51;;;;;;;2.80;1.90;;;19.30;46.90;;;;;;5094742;28;20096;-71
2022/06/04 00:18:19;;;;;;;4.82;1.98;;;19.20;47.80;;;;;;5094685;28;20028;-71
2022/06/04 00:20:45;;;;;;;5.05;1.90;;;19.10;47.10;;;;;;5094465;28;20020;-72
2022/06/04 00:23:11;;;;;;;3.13;2.25;;;19.10;47.20;;;;;;5094418;28;20032;-72
2022/06/04 00:25:40;;;;;;;3.67;2.20;;;19.00;47.10;;;;;;5094351;28;20028;-72
2022/06/04 00:28:08;;;;;;;2.53;1.90;;;18.90;48.40;;;;;;5094234;28;20024;-72
2022/06/04 00:30:34;;;;;;;3.88;1.90;;;18.90;47.50;;;;;;5094390;28;20032;-72
2022/06/04 00:33:00;;;;;;;4.28;2.10;;;18.90;47.70;;;;;;5094175;28;20029;-72
2022/06/04 00:35:26;;;;;;;3.65;2.10;;;18.90;47.60;;;;;;5094181;28;20058;-72
2022/06/04 00:37:52;;;;;;;5.03;2.15;;;18.80;47.60;;;;;;5094268;28;20046;-72
2022/06/04 00:40:43;;;;;;;3.60;2.28;;;18.80;47.60;;;;;;5094106;28;20365;-72
2022/06/04 00:43:09;;;;;;;5.88;2.17;;;18.80;47.30;;;;;;5094079;28;20052;-72
2022/06/04 00:45:34;;;;;;;5.47;2.20;;;18.80;47.50;;;;;;5093977;28;20050;-72
2022/06/04 00:48:03;;;;;;;2.63;2.10;;;18.80;47.70;;;;;;5093952;28;20032;-72
2022/06/04 00:50:31;;;;;;;3.42;2.20;;;18.80;47.70;;;;;;5093922;28;20035;-72
2022/06/04 00:53:00;;;;;;;2.58;2.08;;;18.80;47.90;;;;;;5093783;28;20039;-72
2022/06/04 00:55:37;;;;;;;3.58;2.22;;;18.70;47.90;;;;;;5093644;28;20044;-72
2022/06/04 00:58:16;;;;;;;2.50;1.98;;;18.70;47.80;;;;;;5093778;28;20078;-72
2022/06/04 01:00:50;;;;;;;4.95;2.30;;;18.70;47.90;;;;;;5093766;28;20036;-72
2022/06/04 01:03:30;;;;;;;4.30;2.38;;;18.50;48.30;;;;;;5093770;28;20542;-72
2022/06/04 01:06:08;;;;;;;2.65;2.10;;;18.50;48.60;;;;;;5093714;28;20016;-72
2022/06/04 01:09:09;;;;;;;3.10;2.20;;;18.50;48.60;;;;;;5093609;28;20135;-72
2022/06/04 01:15:19;;;;;;;2.70;2.05;;;18.50;49.10;;;;;;5093712;28;20167;-72
2022/06/04 01:17:59;;;;;;;3.53;2.22;;;18.40;48.80;;;;;;5093581;28;20016;-72
2022/06/04 01:20:45;;;;;;;3.53;2.03;;;18.40;49.00;;;;;;5093481;28;20025;-72
2022/06/04 01:23:35;;;;;;;7.00;2.40;;;18.40;49.10;;;;;;5092822;28;20028;-72
2022/06/04 01:26:15;;;;;;;2.85;2.10;;;18.40;49.00;;;;;;5093427;28;20048;-72
2022/06/04 01:28:48;;;;;;;5.47;2.70;;;18.40;49.00;;;;;;5093327;28;20028;-72
2022/06/04 01:31:20;;;;;;;3.40;2.70;;;18.40;49.10;;;;;;5093468;28;20055;-72
2022/06/04 01:34:00;;;;;;;6.35;2.45;;;18.40;49.10;;;;;;5093255;28;20046;-72
2022/06/04 01:36:50;;;;;;;3.28;2.33;;;18.30;49.10;;;;;;5092280;28;20016;-72
2022/06/04 01:39:24;;;;;;;4.72;2.33;;;18.30;49.60;;;;;;5093399;28;20028;-72
2022/06/04 01:41:54;;;;;;;5.78;2.70;;;18.30;49.60;;;;;;5093295;28;20041;-72
2022/06/04 01:44:34;;;;;;;4.97;2.47;;;18.20;49.80;;;;;;5093287;28;20017;-72
2022/06/04 01:47:06;;;;;;;3.67;2.25;;;18.20;49.90;;;;;;5093335;28;20021;-72
2022/06/04 01:49:39;;;;;;;4.53;2.40;;;18.20;50.10;;;;;;5093196;28;20080;-72
2022/06/04 01:52:11;;;;;;;5.07;2.65;;;18.10;50.20;;;;;;5093076;28;20025;-72
2022/06/04 01:54:49;;;;;;;4.20;2.67;;;18.10;50.20;;;;;;5091894;28;20068;-72
2022/06/04 01:57:39;;;;;;;5.88;3.00;;;18.10;50.30;;;;;;5093096;28;20016;-72
2022/06/04 02:00:16;;;;;;;4.80;2.53;;;18.10;50.50;;;;;;5093022;28;20050;-72
2022/06/04 02:02:53;;;;;;;6.07;2.70;;;18.00;50.70;;;;;;5093059;28;20021;-72
2022/06/04 02:05:30;;;;;;;4.80;2.70;;;18.10;50.70;;;;;;5093142;28;20024;-72
2022/06/04 02:07:58;;;;;;;4.72;2.65;;;18.10;50.80;;;;;;5093018;28;20016;-71
2022/06/04 02:10:27;;;;;;;5.53;3.05;;;18.00;50.90;;;;;;5092953;28;20031;-71
2022/06/04 02:12:56;;;;;;;5.75;2.85;;;17.90;51.00;;;;;;5092862;28;20024;-71
2022/06/04 02:15:29;;;;;;;4.60;2.90;;;17.90;51.10;;;;;;5093018;28;20012;-72
2022/06/04 02:17:57;;;;;;;5.07;3.10;;;17.80;51.50;;;;;;5092882;28;20025;-72
2022/06/04 02:20:25;;;;;;;6.85;3.10;;;17.80;51.80;;;;;;5092815;28;20076;-71
2022/06/04 02:22:51;;;;;;;5.30;2.95;;;17.80;51.90;;;;;;5092792;28;20109;-71
2022/06/04 02:25:17;;;;;;;5.30;3.13;;;17.70;52.00;;;;;;5092805;28;20028;-71
2022/06/04 02:27:44;;;;;;;8.68;3.53;;;17.70;52.30;;;;;;5092669;28;20035;-71
2022/06/04 02:30:12;;;;;;;6.95;3.58;;;17.70;52.30;;;;;;5092759;28;20043;-71
2022/06/04 02:32:46;;;;;;;5.95;3.10;;;17.70;52.50;;;;;;5092681;28;20028;-71
2022/06/04 02:35:30;;;;;;;4.53;2.97;;;17.70;52.70;;;;;;5096287;28;20028;-71
2022/06/04 02:38:19;;;;;;;5.30;3.30;;;17.70;52.70;;;;;;5096522;28;20047;-72
2022/06/04 02:41:06;;;;;;;5.72;3.28;;;17.70;52.90;;;;;;5096481;28;20080;-72
2022/06/04 02:43:46;;;;;;;4.97;3.60;;;17.70;52.90;;;;;;5094309;28;20068;-72
2022/06/04 02:46:47;;;;;;;4.10;3.10;;;17.60;53.20;;;;;;5096353;28;20040;-72
2022/06/04 02:49:30;;;;;;;6.15;3.35;;;17.60;53.40;;;;;;5062362;28;20501;-72
2022/06/04 02:51:57;;;;;;;6.07;3.45;;;17.50;54.10;;;;;;5096283;28;20070;-72
2022/06/04 02:54:28;;;;;;;7.63;3.72;;;17.50;54.00;;;;;;5095988;28;20040;-72
2022/06/04 02:56:55;;;;;;;7.45;3.83;;;17.50;54.20;;;;;;5096270;28;20021;-72
2022/06/04 02:59:23;;;;;;;5.20;3.85;;;17.50;54.30;;;;;;5096105;28;20450;-72
2022/06/04 03:01:53;;;;;;;5.20;3.55;;;17.50;54.30;;;;;;5096179;28;20016;-72
2022/06/04 03:04:19;;;;;;;8.00;3.60;;;17.50;54.20;;;;;;5095995;28;20017;-72
2022/06/04 03:06:45;;;;;;;5.35;3.88;;;17.50;54.40;;;;;;5095964;28;20506;-72
2022/06/04 03:09:15;;;;;;;6.80;4.07;;;17.50;54.50;;;;;;5095904;28;20029;-72
2022/06/04 03:11:46;;;;;;;6.47;4.03;;;17.40;54.60;;;;;;5095896;28;20027;-72
2022/06/04 03:14:14;;;;;;;6.68;4.20;;;17.40;54.90;;;;;;5096005;28;20025;-72
2022/06/04 03:16:43;;;;;;;5.85;3.53;;;17.30;55.10;;;;;;5095788;28;20483;-72
2022/06/04 03:19:09;;;;;;;6.75;3.95;;;17.30;56.50;;;;;;5095621;28;20017;-72
2022/06/04 03:21:37;;;;;;;9.68;3.92;;;17.30;55.30;;;;;;5095704;28;20025;-72
2022/06/04 03:24:04;;;;;;;7.20;4.32;;;17.20;55.30;;;;;;5095632;28;20020;-72
2022/06/04 03:26:30;;;;;;;8.48;4.53;;;17.20;55.60;;;;;;5095555;28;20028;-72
2022/06/04 03:28:56;;;;;;;7.22;4.07;;;17.20;55.90;;;;;;5095524;28;20033;-72
2022/06/04 03:31:22;;;;;;;6.22;4.60;;;17.20;56.30;;;;;;5095480;28;20040;-72
2022/06/04 03:33:48;;;;;;;7.05;4.50;;;17.10;56.20;;;;;;5095385;28;20031;-72
2022/06/04 03:36:13;;;;;;;10.13;4.60;;;17.00;56.50;;;;;;5095419;28;20012;-72
2022/06/04 03:38:39;;;;;;;8.15;4.78;;;17.10;56.70;;;;;;5095347;28;20037;-72
2022/06/04 03:41:05;;;;;;;6.32;4.38;;;17.10;56.80;;;;;;5095409;28;20084;-72
2022/06/04 03:43:31;;;;;;;7.63;4.50;;;17.10;56.80;;;;;;5095375;28;20032;-72
2022/06/04 03:45:56;;;;;;;8.23;4.85;;;17.10;56.90;;;;;;5094659;28;20057;-72
2022/06/04 03:48:22;;;;;;;6.38;4.15;;;17.10;57.00;;;;;;5095326;28;20092;-72
2022/06/04 03:50:48;;;;;;;7.80;4.80;;;17.20;56.90;;;;;;5095230;28;20044;-71
2022/06/04 03:53:14;;;;;;;7.32;4.53;;;17.10;56.80;;;;;;5094053;28;20084;-72
2022/06/04 03:55:40;;;;;;;6.32;4.18;;;17.10;57.00;;;;;;5094890;28;20059;-72
2022/06/04 03:58:05;;;;;;;6.68;4.18;;;17.00;57.20;;;;;;5094976;28;20472;-72
2022/06/04 04:00:38;;;;;;;8.35;4.78;;;17.00;57.40;;;;;;5094798;28;20048;-72
2022/06/04 04:03:07;;;;;;;9.20;4.35;;;17.00;57.50;;;;;;5095066;28;20031;-71
2022/06/04 04:05:36;;;;;;;9.98;4.88;;;17.00;57.70;;;;;;5094753;28;20024;-72
2022/06/04 04:08:05;;;;;;;7.05;4.65;;;17.10;57.60;;;;;;5094799;28;20021;-72
2022/06/04 04:10:31;;;;;;;7.95;4.38;;;17.00;57.80;;;;;;5094765;28;20200;-72
2022/06/04 04:12:57;;;;;;;6.82;4.65;;;16.90;58.10;;;;;;5094637;28;20024;-72
2022/06/04 04:15:25;;;;;;;6.57;4.25;;;16.90;58.20;;;;;;5094620;28;20095;-72
2022/06/04 04:17:51;;;;;;;8.48;4.88;;;16.80;59.60;;;;;;5094620;28;20035;-71
2022/06/04 04:20:23;;;;;;;7.22;4.35;;;16.80;58.70;;;;;;5094530;28;20058;-71
2022/06/04 04:22:49;;;;;;;8.48;5.22;;;16.70;59.00;;;;;;5094538;28;20025;-72
2022/06/04 04:25:17;;;;;;;6.45;4.45;;;16.70;60.20;;;;;;5094464;28;20025;-72
2022/06/04 04:27:46;;;;;;;7.32;4.57;;;16.70;59.20;;;;;;5094355;28;20088;-72
2022/06/04 04:30:14;;;;;;;10.45;4.85;;;16.70;59.40;;;;;;5094333;28;20032;-72
2022/06/04 04:32:41;;;;;;;9.25;4.75;;;16.80;59.40;;;;;;5094244;28;20039;-72
2022/06/04 04:35:09;;;;;;;8.07;4.60;;;16.70;59.60;;;;;;5094233;28;20024;-72
2022/06/04 04:37:34;;;;;;;7.55;4.70;;;16.60;59.90;;;;;;5093151;28;20020;-71
2022/06/04 04:40:00;;;;;;;6.10;4.30;;;16.60;60.40;;;;;;5094143;28;20181;-71
2022/06/04 04:42:26;;;;;;;8.15;5.00;;;16.60;60.50;;;;;;5094072;28;20028;-71
2022/06/04 04:44:51;;;;;;;7.40;5.07;;;16.70;60.30;;;;;;5094051;28;20029;-71
2022/06/04 04:47:17;;;;;;;9.00;4.88;;;16.70;60.30;;;;;;5094022;28;20103;-71
2022/06/04 04:49:43;;;;;;;6.25;4.57;;;16.70;60.30;;;;;;5093968;28;20033;-72
2022/06/04 04:52:08;;;;;;;9.68;5.15;;;16.70;60.10;;;;;;5093850;28;20059;-72
2022/06/04 04:54:34;;;;;;;9.00;5.30;;;16.70;60.20;;;;;;5093725;28;20063;-72
2022/06/04 04:57:00;;;;;;;8.45;5.25;;;16.70;60.30;;;;;;5092986;28;20029;-72
2022/06/04 04:59:26;;;;;;;7.88;4.97;;;16.70;60.40;;;;;;5093783;28;20051;-72
2022/06/04 05:01:52;;;;;;;11.20;5.20;;;16.70;60.50;;;;;;5093712;28;20025;-72
2022/06/04 05:04:17;;;;;;;7.03;4.95;;;16.70;60.40;;;;;;5093842;28;20088;-72
2022/06/04 05:06:43;;;;;;;6.03;4.57;;;16.70;60.50;;;;;;5093787;28;20051;-72
2022/06/04 05:09:10;;;;;;;7.15;4.75;;;16.80;60.70;;;;;;5093668;28;20048;-72
2022/06/04 05:11:36;;;;;;;11.45;5.40;;;16.80;60.70;;;;;;5093580;28;20044;-72
2022/06/04 05:14:02;;;;;;;8.43;5.18;;;16.80;60.70;;;;;;5093494;28;20028;-72
2022/06/04 05:16:37;;;;;;;8.02;4.80;;;16.80;60.90;;;;;;5093606;28;20024;-72
2022/06/04 05:19:04;;;;;;;9.07;4.82;;;16.80;60.90;;;;;;5093565;28;20028;-72
2022/06/04 05:21:43;;;;;;;9.13;4.75;;;16.80;61.00;;;;;;5093491;28;20044;-72
2022/06/04 05:24:20;;;;;;;7.32;4.72;;;16.80;61.20;;;;;;5093456;28;20032;-72
2022/06/04 05:26:47;;;;;;;8.02;4.95;;;16.80;61.20;;;;;;5093592;28;20051;-72
2022/06/04 05:29:13;;;;;;;7.68;5.00;;;16.70;61.10;;;;;;5093303;28;20024;-72
2022/06/04 05:31:40;;;;;;;8.95;5.30;;;16.70;61.30;;;;;;5093315;28;20024;-72
2022/06/04 05:34:09;;;;;;;8.60;5.50;;;16.80;62.30;;;;;;5093228;28;20037;-72
2022/06/04 05:36:36;;;;;;;7.32;4.68;;;16.80;61.20;;;;;;5093297;28;20025;-72
2022/06/04 05:39:03;;;;;;;8.85;4.75;;;16.90;61.20;;;;;;5093253;28;20043;-69
2022/06/04 05:41:28;;;;;;;12.35;5.38;;;16.90;61.20;;;;;;5093247;28;20020;-70
2022/06/04 05:43:54;;;;;;;8.98;5.45;;;16.90;61.30;;;;;;5093159;28;20033;-69
2022/06/04 05:46:20;;;;;;;10.95;5.38;;;16.90;61.20;;;;;;5093282;28;20195;-69
2022/06/04 05:48:46;;;;;;;8.48;5.13;;;16.90;61.30;;;;;;5093126;28;20036;-69
2022/06/04 05:51:15;;;;;;;8.02;5.10;;;16.80;61.50;;;;;;5093202;28;20028;-69
2022/06/04 05:53:41;;;;;;;8.88;5.43;;;16.80;62.50;;;;;;5092989;28;20017;-69
2022/06/04 05:56:15;;;;;;;9.25;5.38;;;16.80;61.60;;;;;;5093029;28;20148;-69
2022/06/04 05:58:41;;;;;;;9.25;5.60;;;16.70;62.00;;;;;;5093083;28;20181;-69
2022/06/04 06:01:06;;;;;;;9.95;5.28;;;16.70;62.30;;;;;;5093026;28;20021;-71
2022/06/04 06:03:33;;;;;;;10.32;5.80;;;16.70;62.40;;;;;;5093025;28;20058;-70
2022/06/04 06:05:59;;;;;;;10.00;5.72;;;16.60;62.60;;;;;;5093006;28;20043;-70
2022/06/04 06:08:25;;;;;;;7.95;5.63;;;16.70;62.40;;;;;;5093731;28;20020;-70
2022/06/04 06:10:50;;;;;;;9.80;5.95;;;16.70;62.50;;;;;;5097022;28;20025;-70
2022/06/04 06:13:16;;;;;;;10.80;5.75;;;16.70;62.40;;;;;;5097017;28;20032;-69
2022/06/04 06:15:42;;;;;;;9.27;5.35;;;16.70;62.60;;;;;;5096906;28;20055;-69
2022/06/04 06:18:08;;;;;;;10.25;5.72;;;16.70;62.50;;;;;;5096878;28;20056;-70
2022/06/04 06:20:34;;;;;;;9.88;6.10;;;16.70;62.50;;;;;;5096814;28;20024;-70
2022/06/04 06:23:00;;;;;;;7.75;5.10;;;16.70;62.80;;;;;;5096764;28;20028;-69
2022/06/04 06:25:26;;;;;;;9.30;5.65;;;16.70;62.70;;;;;;5096752;28;20040;-69
2022/06/04 06:27:55;;;;;;;14.75;5.88;;;16.80;62.50;;;;;;5096646;28;20050;-69
2022/06/04 06:30:21;;;;;;;12.00;6.03;;;16.80;62.50;;;;;;5096648;28;20025;-69
2022/06/04 06:32:47;;;;;;;7.93;5.45;;;16.90;62.70;;;;;;5096633;28;20088;-69
2022/06/04 06:35:13;;;;;;;8.70;5.57;;;16.90;62.40;;;;;;5096515;28;20077;-69
2022/06/04 06:37:38;;;;;;;10.27;5.68;;;17.00;62.40;;;;;;5096461;28;20048;-69
2022/06/04 06:40:05;;;;;;;10.45;6.00;;;17.00;62.40;;;;;;5096350;28;20502;-70
2022/06/04 06:42:30;;;;;;;10.25;5.60;;;17.00;62.30;;;;;;5096312;28;20046;-69
2022/06/04 06:44:56;;;;;;;8.30;5.60;;;17.00;62.50;;;;;;5096341;28;20032;-70
2022/06/04 06:47:22;;;;;;;10.57;5.93;;;17.00;62.40;;;;;;5095232;28;20039;-70
2022/06/04 06:49:48;;;;;;;11.07;6.00;;;17.00;62.60;;;;;;5096285;28;20020;-70
2022/06/04 06:52:16;;;;;;;10.35;5.93;;;17.00;63.40;;;;;;5096147;28;20024;-70
2022/06/04 06:54:42;;;;;;;11.70;5.63;;;17.10;62.40;;;;;;5095892;28;20051;-70
2022/06/04 06:57:10;;;;;;;10.27;6.05;;;17.20;62.30;;;;;;5096245;28;20032;-69
2022/06/04 06:59:37;;;;;;;9.38;5.90;;;17.20;62.20;;;;;;5096145;28;20021;-69
2022/06/04 07:02:04;;;;;;;10.15;5.80;;;17.20;62.10;;;;;;5096138;28;20191;-69
2022/06/04 07:04:30;;;;;;;12.85;6.00;;;17.10;62.30;;;;;;5095990;28;20017;-69
2022/06/04 07:07:00;;;;;;;14.07;5.85;;;17.10;62.20;;;;;;5096077;28;20565;-70
2022/06/04 07:09:26;;;;;;;7.88;5.53;;;17.20;62.40;;;;;;5095910;28;20054;-70
2022/06/04 07:11:52;;;;;;;10.48;6.13;;;17.20;62.30;;;;;;5095884;28;20016;-70
2022/06/04 07:14:19;;;;;;;9.13;5.63;;;17.20;62.40;;;;;;5095826;28;20032;-70
2022/06/04 07:16:45;;;;;;;9.70;5.60;;;17.20;62.40;;;;;;5095798;28;20027;-70
2022/06/04 07:19:12;;;;;;;8.90;5.63;;;17.20;62.00;;;;;;5095727;28;20040;-70
2022/06/04 07:21:39;;;;;;;10.60;6.05;;;17.20;62.10;;;;;;5094619;28;20020;-70
2022/06/04 07:24:05;;;;;;;9.73;5.97;;;17.20;62.20;;;;;;5095646;28;20028;-70
2022/06/04 07:26:30;;;;;;;8.30;5.53;;;17.20;62.20;;;;;;5095715;28;20052;-69
2022/06/04 07:28:56;;;;;;;10.43;5.97;;;17.20;62.40;;;;;;5095522;28;20063;-69
2022/06/04 07:31:22;;;;;;;9.02;5.50;;;17.10;62.40;;;;;;5095535;28;20523;-69
2022/06/04 07:33:52;;;;;;;10.10;5.75;;;17.20;62.30;;;;;;5095529;28;20051;-69
2022/06/04 07:36:21;;;;;;;9.90;6.32;;;17.20;62.60;;;;;;5095515;28;20039;-69
2022/06/04 07:38:47;;;;;;;9.85;5.75;;;17.30;62.70;;;;;;5094392;28;20095;-70
2022/06/04 07:41:27;;;;;;;10.95;5.90;;;17.30;62.40;;;;;;5095313;28;20021;-70
2022/06/04 07:43:53;;;;;;;10.10;5.85;;;17.30;62.90;;;;;;5095288;28;20023;-70
2022/06/04 07:46:20;;;;;;;13.57;6.18;;;17.30;62.60;;;;;;5095213;28;20037;-70
2022/06/04 07:48:46;;;;;;;12.73;6.43;;;17.40;62.60;;;;;;5095116;28;20069;-70
2022/06/04 07:51:13;;;;;;;8.73;5.75;;;17.40;62.40;;;;;;5095142;28;20031;-69
2022/06/04 07:53:39;;;;;;;10.35;6.25;;;17.40;63.50;;;;;;5095033;28;20028;-69
2022/06/04 07:56:06;;;;;;;10.85;6.20;;;17.50;62.70;;;;;;5094741;28;20123;-69
2022/06/04 07:58:32;;;;;;;10.27;6.00;;;17.50;62.90;;;;;;5094956;28;20040;-69
2022/06/04 08:00:58;;;;;;;10.85;6.05;;;17.50;62.30;;;;;;5094909;28;20020;-69
2022/06/04 08:03:24;;;;;;;9.30;6.50;;;17.60;62.00;;;;;;5094900;28;20039;-69
2022/06/04 08:05:50;;;;;;;9.15;6.07;;;17.60;61.90;;;;;;5093803;28;20033;-69
2022/06/04 08:08:16;;;;;;;13.52;6.47;;;17.70;62.30;;;;;;5094764;28;20037;-69
2022/06/04 08:10:46;;;;;;;10.70;5.88;;;17.70;61.80;;;;;;5094719;28;20025;-69
2022/06/04 08:13:14;;;;;;;9.02;5.70;;;17.60;61.80;;;;;;5094643;28;20092;-69
2022/06/04 08:15:42;;;;;;;10.10;6.22;;;17.60;61.80;;;;;;5094639;28;20025;-69
2022/06/04 08:18:08;;;;;;;11.70;6.03;;;17.60;61.70;;;;;;5094603;28;20028;-69
2022/06/04 08:20:34;;;;;;;8.95;6.28;;;17.60;61.40;;;;;;5094529;28;20021;-70
2022/06/04 08:22:59;;;;;;;13.85;6.38;;;17.60;61.90;;;;;;5094512;28;20092;-70
2022/06/04 08:25:25;;;;;;;22.20;6.38;;;17.60;61.90;;;;;;5093566;28;20029;-69
2022/06/04 08:27:50;;;;;;;10.10;5.72;;;17.60;61.90;;;;;;5094341;28;20070;-69
2022/06/04 08:30:16;;;;;;;10.38;6.30;;;17.70;61.80;;;;;;5094349;28;20033;-69
2022/06/04 08:32:42;;;;;;;9.27;6.18;;;17.80;62.00;;;;;;5094018;28;20035;-69
2022/06/04 08:35:08;;;;;;;13.23;6.40;;;17.80;62.30;;;;;;5094248;28;20492;-69
2022/06/04 08:37:35;;;;;;;10.38;5.93;;;17.90;61.90;;;;;;5094253;28;20052;-69
2022/06/04 08:40:01;;;;;;;8.07;6.13;;;18.00;62.00;;;;;;5094160;28;20515;-69
2022/06/04 08:42:45;;;;;;;9.55;5.93;;;18.00;61.70;;;;;;5093159;28;20088;-69
2022/06/04 08:45:11;;;;;;;9.38;6.13;;;18.10;62.00;;;;;;5094127;28;20032;-69
2022/06/04 08:47:44;;;;;;;10.77;6.45;;;18.20;61.80;;;;;;5093977;28;20024;-69
2022/06/04 08:50:09;;;;;;;12.93;6.13;;;18.20;61.20;;;;;;5094010;28;20088;-69
2022/06/04 08:52:44;;;;;;;8.57;6.10;;;18.30;61.10;;;;;;5093846;28;20036;-69
2022/06/04 08:58:12;;;;;;;9.02;6.18;;;18.40;61.10;;;;;;5093972;28;20035;-70
2022/06/04 09:00:56;;;;;;;10.10;6.03;;;18.50;61.10;;;;;;5093758;28;20025;-70
2022/06/04 09:03:50;;;;;;;8.85;5.75;;;18.50;61.10;;;;;;5093899;28;20031;-70
2022/06/04 09:06:27;;;;;;;11.18;6.47;;;18.60;61.00;;;;;;5093744;28;20035;-70
2022/06/04 09:09:25;;;;;;;10.85;6.47;;;18.60;60.70;;;;;;5093677;28;20046;-69
2022/06/04 09:12:08;;;;;;;9.63;6.15;;;18.70;61.30;;;;;;5092111;28;20383;-69
2022/06/04 09:14:37;;;;;;;11.57;6.65;;;18.80;61.10;;;;;;5093553;28;20039;-69
2022/06/04 09:17:10;;;;;;;12.45;7.70;;;18.90;60.70;;;;;;5093501;28;20017;-69
2022/06/04 09:19:36;;;;;;;;;;;18.90;61.20;;;;;;5093910;28;20025;-69
2022/06/04 09:22:11;;;;;;;9.05;7.13;;;19.00;60.20;;;;;;5093443;28;19915;-69
2022/06/04 09:24:37;;;;;;;13.43;10.25;;;19.10;60.70;;;;;;5093456;28;20020;-70
2022/06/04 09:27:30;;;;;;;28.75;25.58;;;19.20;60.60;;;;;;5093362;28;20024;-70
2022/06/04 09:30:02;;;;;;;13.55;11.15;;;19.40;60.30;;;;;;5093391;28;20024;-70
2022/06/04 09:32:48;;;;;;;10.35;6.68;;;19.40;60.10;;;;;;5093216;28;20028;-70
2022/06/04 09:35:21;;;;;;;13.13;7.28;;;19.50;59.40;;;;;;5093294;28;20024;-69
2022/06/04 09:37:49;;;;;;;10.65;6.40;;;19.60;59.10;;;;;;5093301;28;20028;-69
2022/06/04 09:40:25;;;;;;;11.02;6.30;;;19.70;59.70;;;;;;5093279;28;20017;-69
2022/06/04 09:42:52;;;;;;;9.38;6.80;;;19.80;59.80;;;;;;5092905;28;20031;-69
2022/06/04 09:45:22;;;;;;;11.13;7.30;;;19.90;60.10;;;;;;5091918;28;20043;-69
2022/06/04 09:47:50;;;;;;;12.15;6.90;;;20.00;60.00;;;;;;5093206;28;20028;-69
2022/06/04 09:50:32;;;;;;;14.65;7.13;;;20.20;59.40;;;;;;5093095;28;20029;-69
2022/06/04 09:53:13;;;;;;;;;;;20.30;58.00;;;;;;5093496;28;20027;-69
2022/06/04 09:55:47;;;;;;;21.25;6.80;;;20.30;58.90;;;;;;5092948;28;19920;-69
2022/06/04 09:58:26;;;;;;;11.15;6.32;;;20.30;57.80;;;;;;5093033;28;20027;-70
2022/06/04 10:01:01;;;;;;;9.70;6.78;;;20.30;58.10;;;;;;5093063;28;20438;-70
2022/06/04 10:03:29;;;;;;;8.48;6.10;;;20.40;58.30;;;;;;5093079;28;20093;-69
2022/06/04 10:06:16;;;;;;;9.52;6.65;;;20.50;58.30;;;;;;5093000;28;20020;-69
2022/06/04 10:11:56;;;;;;;11.73;7.15;;;20.60;57.20;;;;;;5093136;28;20044;-69
2022/06/04 10:14:43;;;;;;;12.52;7.07;;;20.60;57.90;;;;;;5092854;28;20024;-69
2022/06/04 10:17:20;;;;;;;11.60;8.80;;;20.70;57.50;;;;;;5093073;28;20025;-69
2022/06/04 10:19:54;;;;;;;12.05;8.23;;;20.70;56.60;;;;;;5092978;28;20368;-69
2022/06/04 10:22:20;;;;;;;10.95;7.05;;;20.60;57.30;;;;;;5092756;28;20090;-69
2022/06/04 10:24:54;;;;;;;11.13;7.32;;;20.60;57.20;;;;;;5092811;28;20088;-69
2022/06/04 10:27:41;;;;;;;11.02;6.90;;;20.70;57.00;;;;;;5092859;28;20025;-69
2022/06/04 10:30:31;;;;;;;10.07;7.35;;;20.80;57.20;;;;;;5092800;28;20040;-69
2022/06/04 10:33:18;;;;;;;10.25;6.65;;;20.80;57.40;;;;;;5092846;28;20032;-69
2022/06/04 10:36:04;;;;;;;11.57;6.80;;;20.90;57.10;;;;;;5092881;28;20042;-69
2022/06/04 10:38:46;;;;;;;11.55;7.10;;;21.00;55.90;;;;;;5092695;28;20021;-69
2022/06/04 10:41:27;;;;;;;11.27;7.15;;;21.00;56.50;;;;;;5092588;28;20025;-69
2022/06/04 10:44:30;;;;;;;12.75;7.00;;;21.00;56.50;;;;;;5092797;28;20027;-70
2022/06/04 10:47:21;;;;;;;10.80;7.20;;;21.10;56.80;;;;;;5092565;28;20050;-69
2022/06/04 10:49:55;;;;;;;12.43;6.60;;;21.10;56.30;;;;;;5092716;28;20033;-70
2022/06/04 10:52:33;;;;;;;10.27;6.75;;;21.20;57.00;;;;;;5092596;28;20028;-70
2022/06/04 10:55:09;;;;;;;11.30;7.07;;;21.30;56.40;;;;;;5093938;28;20040;-70
2022/06/04 10:57:47;;;;;;;12.73;7.47;;;21.40;55.80;;;;;;5096256;28;20025;-70
2022/06/04 11:00:18;;;;;;;10.95;6.72;;;21.30;55.40;;;;;;5096070;28;20024;-70
2022/06/04 11:02:52;;;;;;;12.07;6.93;;;21.30;54.80;;;;;;5096134;28;20112;-70
2022/06/04 11:05:21;;;;;;;9.82;6.93;;;21.30;54.80;;;;;;5096110;28;20024;-70
2022/06/04 11:08:20;;;;;;;8.07;6.43;;;21.40;55.40;;;;;;5095996;28;20020;-70
2022/06/04 11:10:48;;;;;;;11.30;6.85;;;21.60;56.20;;;;;;5095939;28;20028;-70
2022/06/04 11:13:26;;;;;;;10.43;5.75;;;21.70;56.70;;;;;;5095761;28;20021;-70
2022/06/04 11:16:03;;;;;;;9.15;6.63;;;21.80;53.80;;;;;;5095827;28;20020;-70
2022/06/04 11:18:54;;;;;;;9.00;6.65;;;21.80;54.10;;;;;;5095808;28;20112;-70
2022/06/04 11:21:41;;;;;;;9.98;6.90;;;21.90;55.10;;;;;;5095755;28;20021;-70
2022/06/04 11:24:17;;;;;;;13.32;7.72;;;22.00;54.70;;;;;;5095756;28;20098;-70
2022/06/04 11:26:49;;;;;;;11.07;6.55;;;22.10;53.20;;;;;;5095795;28;20052;-70
2022/06/04 11:29:14;;;;;;;11.25;6.70;;;22.10;54.80;;;;;;5094517;28;20024;-70
2022/06/04 11:31:51;;;;;;;8.93;6.60;;;22.20;54.60;;;;;;5095492;28;20036;-70
2022/06/04 11:34:55;;;;;;;13.18;7.32;;;22.30;53.40;;;;;;5095553;28;20033;-70
2022/06/04 11:37:33;;;;;;;10.23;6.97;;;22.30;53.50;;;;;;5095410;28;20031;-70
2022/06/04 11:40:24;;;;;;;10.27;7.82;;;22.40;54.00;;;;;;5095513;28;20059;-70
2022/06/04 11:43:00;;;;;;;9.53;7.13;;;22.50;53.00;;;;;;5092301;28;20037;-70
2022/06/04 11:45:37;;;;;;;8.73;6.57;;;22.60;52.80;;;;;;5095274;28;20103;-70
2022/06/04 11:48:24;;;;;;;10.32;6.85;;;22.60;51.90;;;;;;5095265;28;20025;-69
2022/06/04 11:51:08;;;;;;;10.10;6.30;;;22.60;52.00;;;;;;5095364;28;20029;-69
2022/06/04 11:53:57;;;;;;;9.52;6.82;;;22.80;52.30;;;;;;5095229;28;20055;-70
2022/06/04 11:56:43;;;;;;;11.75;7.13;;;22.80;52.40;;;;;;5094907;28;20041;-69
2022/06/04 11:59:30;;;;;;;9.40;7.13;;;22.90;53.00;;;;;;5095182;28;20021;-70
2022/06/04 12:02:10;;;;;;;10.48;6.65;;;23.00;52.00;;;;;;5094975;28;20027;-70
2022/06/04 12:04:47;;;;;;;11.77;7.20;;;23.20;52.10;;;;;;5095064;28;20076;-69
2022/06/04 12:07:18;;;;;;;9.90;6.55;;;23.30;50.20;;;;;;5094507;28;20040;-69
2022/06/04 12:09:55;;;;;;;12.95;6.40;;;23.30;50.30;;;;;;5094853;28;20021;-69
2022/06/04 12:12:48;;;;;;;8.63;6.45;;;23.50;51.60;;;;;;5094836;28;20029;-69
2022/06/04 12:15:34;;;;;;;12.27;6.40;;;23.50;49.70;;;;;;5094868;28;20017;-69
2022/06/04 12:18:14;;;;;;;11.90;7.20;;;23.50;50.50;;;;;;5094693;28;20028;-69
2022/06/04 12:26:38;;;;;;;10.43;6.40;;;23.80;51.30;;;;;;5094627;28;20039;-69
2022/06/04 12:29:27;;;;;;;12.73;6.80;;;23.90;49.40;;;;;;5094439;28;20173;-69
2022/06/04 12:32:19;;;;;;;8.48;6.15;;;24.10;49.10;;;;;;5084941;28;20044;-69
2022/06/04 12:34:45;;;;;;;8.65;6.10;;;24.20;48.90;;;;;;5091369;28;20484;-69
2022/06/04 12:37:28;;;;;;;8.27;6.15;;;24.20;49.30;;;;;;5094256;28;20024;-69
2022/06/04 12:39:54;;;;;;;;;;;24.30;48.40;;;;;;5094649;28;20024;-70
2022/06/04 12:42:20;;;;;;;8.82;6.30;;;24.30;48.20;;;;;;5094129;28;19962;-70
2022/06/04 12:44:58;;;;;;;9.02;6.25;;;24.20;48.70;;;;;;5094078;28;20036;-70
2022/06/04 12:47:29;;;;;;;10.45;6.25;;;24.40;49.50;;;;;;5094023;28;20020;-70
2022/06/04 12:50:18;;;;;;;9.60;6.00;;;24.50;49.80;;;;;;5094173;28;20031;-70
2022/06/04 12:52:47;;;;;;;9.48;5.95;;;24.80;48.50;;;;;;5094039;28;20025;-70
2022/06/04 12:55:23;;;;;;;9.30;6.50;;;24.90;48.10;;;;;;5093849;28;20066;-70
2022/06/04 12:57:55;;;;;;;9.23;6.05;;;25.00;47.60;;;;;;5093807;28;20052;-70
2022/06/04 13:00:28;;;;;;;9.83;6.77;;;25.10;47.20;;;;;;5093817;28;20116;-70
2022/06/04 13:03:25;;;;;;;10.35;6.55;;;25.10;46.30;;;;;;5093813;28;20025;-70
2022/06/04 13:06:14;;;;;;;8.65;5.97;;;25.20;46.00;;;;;;5093744;28;20024;-70
2022/06/04 13:08:56;;;;;;;8.27;6.18;;;25.20;46.20;;;;;;5093816;28;20028;-69
2022/06/04 13:11:48;;;;;;;7.95;5.78;;;25.20;45.90;;;;;;5093790;28;20016;-70
2022/06/04 13:14:35;;;;;;;8.38;6.13;;;25.30;46.20;;;;;;5093585;28;20046;-70
2022/06/04 13:17:30;;;;;;;8.63;6.88;;;25.40;46.20;;;;;;5093748;28;20030;-70
2022/06/04 13:20:07;;;;;;;8.20;5.75;;;25.40;44.80;;;;;;5093278;28;20084;-70
2022/06/04 13:22:37;;;;;;;8.38;6.40;;;25.40;45.50;;;;;;5093650;28;20028;-70
2022/06/04 13:25:09;;;;;;;8.20;6.38;;;25.40;45.50;;;;;;5093511;28;20048;-70
2022/06/04 13:27:48;;;;;;;8.80;6.25;;;25.50;46.30;;;;;;5093416;28;20046;-70
2022/06/04 13:30:29;;;;;;;8.93;5.95;;;25.50;45.20;;;;;;5093422;28;20025;-70